Time,TemperatureF,DewpointF,PressureIn,WindDirection,WindDirectionDegrees,WindSpeedMPH,WindSpeedGustMPH,Humidity,HourlyPrecipIn,Conditions,Clouds,dailyrainin,SoftwareType,DateUTC
2013-02-07 00:00:00,36.0,22.6,29.91,SW,225,2.7,5.8,58,0.00,,SCT,0.00,VWS V14.01,2013-02-07 08:00:00,
2013-02-07 00:06:00,36.1,22.4,29.91,South,187,13.6,13.6,57,0.00,,SCT,0.00,VWS V14.01,2013-02-07 08:06:00,
2013-02-07 00:10:00,36.1,22.0,29.91,South,182,6.3,13.6,56,0.00,,SCT,0.00,VWS V14.01,2013-02-07 08:10:00,
2013-02-07 00:15:00,36.1,22.0,29.91,SW,226,5.4,13.6,56,0.00,,SCT,0.00,VWS V14.01,2013-02-07 08:15:00,
2013-02-07 00:16:00,36.1,22.4,29.91,SW,233,8.3,11.0,57,0.00,,SCT,0.00,VWS V14.01,2013-02-07 08:16:00,
2013-02-07 00:21:00,36.1,22.4,29.91,SSE,156,12.3,12.8,57,0.00,,SCT,0.00,VWS V14.01,2013-02-07 08:21:00,
2013-02-07 00:26:00,35.8,22.5,29.91,SE,145,4.9,12.8,58,0.00,,SCT,0.00,VWS V14.01,2013-02-07 08:26:00,
2013-02-07 00:30:00,35.8,22.5,29.91,South,172,6.7,12.8,58,0.00,,SCT,0.00,VWS V14.01,2013-02-07 08:30:00,
2013-02-07 00:31:00,35.8,22.5,29.91,SE,146,12.3,12.3,58,0.00,,SCT,0.00,VWS V14.01,2013-02-07 08:31:00,
2013-02-07 00:36:00,35.6,22.3,29.91,SE,127,6.3,12.3,58,0.00,,SCT,0.00,VWS V14.01,2013-02-07 08:36:00,
2013-02-07 00:41:00,35.6,22.3,29.91,South,189,8.3,12.8,58,0.00,,SCT,0.00,VWS V14.01,2013-02-07 08:41:00,
2013-02-07 00:45:00,35.4,22.5,29.91,South,191,6.3,12.8,59,0.00,,SCT,0.00,VWS V14.01,2013-02-07 08:45:00,
2013-02-07 00:46:00,35.4,22.5,29.91,SE,146,12.3,12.3,59,0.00,,SCT,0.00,VWS V14.01,2013-02-07 08:46:00,
2013-02-07 00:51:00,35.2,22.4,29.91,SE,143,8.7,12.3,59,0.00,,SCT,0.00,VWS V14.01,2013-02-07 08:51:00,
2013-02-07 00:56:00,35.2,22.4,29.88,South,174,10.1,15.0,59,0.00,,SCT,0.00,VWS V14.01,2013-02-07 08:56:00,
2013-02-07 01:00:00,35.2,22.0,29.88,SSW,201,13.2,15.0,58,0.00,,SCT,0.00,VWS V14.01,2013-02-07 09:00:00,
2013-02-07 01:01:00,35.4,22.1,29.88,SSE,164,6.3,13.6,58,0.00,,SCT,0.00,VWS V14.01,2013-02-07 09:01:00,
2013-02-07 01:07:00,35.4,21.7,29.88,West,262,13.2,16.8,57,0.00,,SCT,0.00,VWS V14.01,2013-02-07 09:07:00,
2013-02-07 01:15:00,35.6,21.5,29.88,SE,125,11.9,16.8,56,0.00,,SCT,0.00,VWS V14.01,2013-02-07 09:15:00,
2013-02-07 01:16:00,35.6,21.5,29.88,South,189,2.7,11.9,56,0.00,,SCT,0.00,VWS V14.01,2013-02-07 09:16:00,
2013-02-07 01:21:00,35.4,21.7,29.88,SSW,196,8.7,13.2,57,0.00,,SCT,0.00,VWS V14.01,2013-02-07 09:21:00,
2013-02-07 01:26:00,35.4,21.7,29.88,West,267,8.3,13.2,57,0.00,,SCT,0.00,VWS V14.01,2013-02-07 09:26:00,
2013-02-07 01:30:00,35.4,21.7,29.88,SSW,212,13.2,15.0,57,0.00,,SCT,0.00,VWS V14.01,2013-02-07 09:30:00,
2013-02-07 01:31:00,35.4,21.7,29.88,SSW,201,5.4,13.2,57,0.00,,SCT,0.00,VWS V14.01,2013-02-07 09:31:00,
2013-02-07 01:36:00,35.4,21.7,29.88,South,181,6.7,13.2,57,0.00,,SCT,0.00,VWS V14.01,2013-02-07 09:36:00,
2013-02-07 01:41:00,35.4,21.3,29.88,SE,128,8.7,13.6,56,0.00,,SCT,0.00,VWS V14.01,2013-02-07 09:41:00,
2013-02-07 01:45:00,35.6,21.5,29.88,SSE,168,6.3,13.6,56,0.00,,SCT,0.00,VWS V14.01,2013-02-07 09:45:00,
2013-02-07 01:46:00,35.6,21.5,29.88,South,189,7.6,12.8,56,0.00,,SCT,0.00,VWS V14.01,2013-02-07 09:46:00,
2013-02-07 01:51:00,35.4,21.3,29.88,South,191,4.0,12.8,56,0.00,,SCT,0.00,VWS V14.01,2013-02-07 09:51:00,
2013-02-07 01:56:00,35.4,21.3,29.88,SE,134,5.4,12.8,56,0.00,,SCT,0.00,VWS V14.01,2013-02-07 09:56:00,
2013-02-07 02:00:00,35.2,21.1,29.88,SSE,167,8.7,12.8,56,0.00,,SCT,0.00,VWS V14.01,2013-02-07 10:00:00,
2013-02-07 02:01:00,35.2,21.1,29.88,SW,214,5.8,10.1,56,0.00,,SCT,0.00,VWS V14.01,2013-02-07 10:01:00,
2013-02-07 02:06:00,35.2,21.5,29.88,West,266,10.1,11.0,57,0.00,,SCT,0.00,VWS V14.01,2013-02-07 10:06:00,
2013-02-07 02:12:00,35.2,21.5,29.91,WSW,245,9.6,11.0,57,0.00,,SCT,0.00,VWS V14.01,2013-02-07 10:12:00,
2013-02-07 02:15:00,35.2,21.5,29.91,SSE,160,6.3,11.0,57,0.00,,SCT,0.00,VWS V14.01,2013-02-07 10:15:00,
2013-02-07 02:16:00,35.1,21.8,29.91,ESE,115,8.1,8.1,58,0.00,,SCT,0.00,VWS V14.01,2013-02-07 10:16:00,
2013-02-07 02:22:00,35.1,22.2,29.91,WSW,249,3.1,8.7,59,0.00,,SCT,0.00,VWS V14.01,2013-02-07 10:22:00,
2013-02-07 02:27:00,34.9,22.8,29.91,SW,234,5.8,11.0,61,0.00,,SCT,0.00,VWS V14.01,2013-02-07 10:27:00,
2013-02-07 02:30:00,34.7,23.4,29.91,South,174,2.2,11.0,63,0.00,,SCT,0.00,VWS V14.01,2013-02-07 10:30:00,
2013-02-07 02:32:00,34.5,23.2,29.91,South,184,8.1,8.1,63,0.00,,SCT,0.00,VWS V14.01,2013-02-07 10:32:00,
2013-02-07 02:37:00,34.3,24.2,29.91,SSE,155,3.1,11.9,66,0.00,,SCT,0.00,VWS V14.01,2013-02-07 10:37:00,
2013-02-07 02:42:00,34.3,24.5,29.91,SSW,210,8.7,11.9,67,0.00,,SCT,0.00,VWS V14.01,2013-02-07 10:42:00,
2013-02-07 02:45:00,34.2,25.1,29.91,SW,231,4.0,11.9,69,0.00,,SCT,0.00,VWS V14.01,2013-02-07 10:45:00,
2013-02-07 02:47:00,34.0,25.2,29.91,West,260,4.0,11.0,70,0.00,,SCT,0.00,VWS V14.01,2013-02-07 10:47:00,
2013-02-07 02:52:00,34.0,25.6,29.91,WSW,253,3.6,11.0,71,0.00,,SCT,0.00,VWS V14.01,2013-02-07 10:52:00,
2013-02-07 02:57:00,33.8,25.7,29.91,WNW,303,6.3,11.0,72,0.00,,SCT,0.00,VWS V14.01,2013-02-07 10:57:00,
2013-02-07 03:00:00,33.8,25.8,29.91,WNW,286,3.1,11.0,72,0.00,,SCT,0.00,VWS V14.01,2013-02-07 11:00:00,
2013-02-07 03:02:00,33.8,26.1,29.91,South,181,0.0,3.1,73,0.00,,SCT,0.00,VWS V14.01,2013-02-07 11:02:00,
2013-02-07 03:07:00,33.8,26.1,29.91,NNW,327,0.0,3.1,73,0.00,,SCT,0.00,VWS V14.01,2013-02-07 11:07:00,
2013-02-07 03:12:00,33.8,26.1,29.91,NNW,342,2.7,5.8,73,0.00,,SCT,0.00,VWS V14.01,2013-02-07 11:12:00,
2013-02-07 03:15:00,33.8,26.4,29.91,NNW,338,0.0,5.8,74,0.00,,SCT,0.00,VWS V14.01,2013-02-07 11:15:00,
2013-02-07 03:17:00,33.8,26.4,29.91,NW,312,0.0,0.0,74,0.00,,SCT,0.00,VWS V14.01,2013-02-07 11:17:00,
2013-02-07 03:22:00,33.6,26.6,29.91,NNW,331,2.2,5.8,75,0.00,,SCT,0.00,VWS V14.01,2013-02-07 11:22:00,
2013-02-07 03:27:00,33.6,26.6,29.91,NW,313,0.0,5.8,75,0.00,,SCT,0.00,VWS V14.01,2013-02-07 11:27:00,
2013-02-07 03:30:00,33.4,26.4,29.91,NNW,328,0.0,5.8,75,0.00,,SCT,0.00,VWS V14.01,2013-02-07 11:30:00,
2013-02-07 03:33:00,33.4,26.4,29.91,NNW,328,0.0,0.0,75,0.00,,SCT,0.00,VWS V14.01,2013-02-07 11:33:00,
2013-02-07 03:38:00,33.3,26.2,29.91,South,169,0.0,0.0,75,0.00,,SCT,0.00,VWS V14.01,2013-02-07 11:38:00,
2013-02-07 03:43:00,33.1,26.0,29.91,South,172,0.0,0.0,75,0.00,,SCT,0.00,VWS V14.01,2013-02-07 11:43:00,
2013-02-07 03:45:00,33.1,25.7,29.91,South,172,0.0,0.0,74,0.00,,SCT,0.00,VWS V14.01,2013-02-07 11:45:00,
2013-02-07 03:48:00,32.9,25.5,29.91,South,172,0.0,0.0,74,0.00,,SCT,0.00,VWS V14.01,2013-02-07 11:48:00,
2013-02-07 03:53:00,32.9,24.9,29.91,SW,226,0.0,0.0,72,0.00,,SCT,0.00,VWS V14.01,2013-02-07 11:53:00,
2013-02-07 03:58:00,32.7,23.7,29.91,SSE,168,0.0,0.0,69,0.00,,SCT,0.00,VWS V14.01,2013-02-07 11:58:00,
2013-02-07 04:00:00,32.7,23.3,29.91,SE,142,3.1,4.0,68,0.00,,SCT,0.00,VWS V14.01,2013-02-07 12:00:00,
2013-02-07 04:03:00,32.7,23.0,29.91,SSE,166,0.0,3.1,67,0.00,,SCT,0.00,VWS V14.01,2013-02-07 12:03:00,
2013-02-07 04:08:00,32.9,23.2,29.91,SSE,166,0.0,3.1,67,0.00,,SCT,0.00,VWS V14.01,2013-02-07 12:08:00,
2013-02-07 04:13:00,32.9,22.8,29.91,SSE,166,0.0,3.1,66,0.00,,SCT,0.00,VWS V14.01,2013-02-07 12:13:00,
2013-02-07 04:15:00,32.9,22.8,29.91,NW,317,0.0,3.1,66,0.00,,SCT,0.00,VWS V14.01,2013-02-07 12:15:00,
2013-02-07 04:18:00,33.1,22.6,29.91,NW,315,0.0,0.0,65,0.00,,SCT,0.00,VWS V14.01,2013-02-07 12:18:00,
2013-02-07 04:23:00,32.9,22.1,29.91,WNW,299,0.0,0.0,64,0.00,,SCT,0.00,VWS V14.01,2013-02-07 12:23:00,
2013-02-07 04:28:00,33.1,21.9,29.91,NW,317,0.0,0.0,63,0.00,,SCT,0.00,VWS V14.01,2013-02-07 12:28:00,
2013-02-07 04:30:00,33.1,21.9,29.91,NW,317,0.0,0.0,63,0.00,,SCT,0.00,VWS V14.01,2013-02-07 12:30:00,
2013-02-07 04:33:00,32.9,21.7,29.91,NW,317,0.0,0.0,63,0.00,,SCT,0.00,VWS V14.01,2013-02-07 12:33:00,
2013-02-07 04:38:00,32.9,21.7,29.91,NW,317,0.0,4.0,63,0.00,,SCT,0.00,VWS V14.01,2013-02-07 12:38:00,
2013-02-07 04:43:00,32.9,21.7,29.94,NW,317,0.0,4.0,63,0.00,,SCT,0.00,VWS V14.01,2013-02-07 12:43:00,
2013-02-07 04:45:00,32.9,21.7,29.94,NW,317,0.0,4.0,63,0.00,,SCT,0.00,VWS V14.01,2013-02-07 12:45:00,
2013-02-07 04:49:00,32.9,22.1,29.94,NW,317,0.0,0.0,64,0.00,,SCT,0.00,VWS V14.01,2013-02-07 12:49:00,
2013-02-07 04:54:00,32.9,22.4,29.94,NW,317,0.0,0.0,65,0.00,,SCT,0.00,VWS V14.01,2013-02-07 12:54:00,
2013-02-07 04:59:00,32.9,23.9,29.94,SSE,163,4.0,5.8,69,0.00,,SCT,0.00,VWS V14.01,2013-02-07 12:59:00,
2013-02-07 05:00:00,32.7,24.0,29.94,SSW,197,2.7,5.8,70,0.00,,SCT,0.00,VWS V14.01,2013-02-07 13:00:00,
2013-02-07 05:04:00,32.7,24.7,29.94,SSE,153,3.1,5.4,72,0.00,,SCT,0.00,VWS V14.01,2013-02-07 13:04:00,
2013-02-07 05:09:00,32.5,25.2,29.91,SSE,162,4.0,5.4,74,0.00,,SCT,0.00,VWS V14.01,2013-02-07 13:09:00,
2013-02-07 05:14:00,32.4,25.3,29.91,East,98,2.7,6.3,75,0.00,,SCT,0.00,VWS V14.01,2013-02-07 13:14:00,
2013-02-07 05:15:00,32.4,25.6,29.91,SE,143,4.0,6.3,76,0.00,,SCT,0.00,VWS V14.01,2013-02-07 13:15:00,
2013-02-07 05:19:00,32.2,25.8,29.91,ESE,122,5.4,5.8,77,0.00,,SCT,0.00,VWS V14.01,2013-02-07 13:19:00,
2013-02-07 05:24:00,32.0,25.9,29.91,SE,143,5.4,7.6,78,0.00,,SCT,0.00,VWS V14.01,2013-02-07 13:24:00,
2013-02-07 05:29:00,31.8,26.1,29.91,SSW,200,2.7,7.6,79,0.00,,SCT,0.00,VWS V14.01,2013-02-07 13:29:00,
2013-02-07 05:30:00,31.8,26.4,29.91,East,92,2.7,7.6,80,0.00,,SCT,0.00,VWS V14.01,2013-02-07 13:30:00,
2013-02-07 05:34:00,31.6,26.5,29.91,SE,146,3.6,8.3,81,0.00,,SCT,0.00,VWS V14.01,2013-02-07 13:34:00,
2013-02-07 05:39:00,31.5,26.6,29.91,SSE,152,0.0,8.3,82,0.00,,SCT,0.00,VWS V14.01,2013-02-07 13:39:00,
2013-02-07 05:45:00,31.3,26.4,29.91,SE,146,0.0,8.3,82,0.00,,SCT,0.00,VWS V14.01,2013-02-07 13:45:00,
2013-02-07 05:50:00,31.3,26.4,29.91,SW,220,0.0,3.6,82,0.00,,SCT,0.00,VWS V14.01,2013-02-07 13:50:00,
2013-02-07 05:55:00,31.3,26.1,29.91,SSE,150,0.0,6.3,81,0.00,,SCT,0.00,VWS V14.01,2013-02-07 13:55:00,
2013-02-07 06:00:00,31.1,26.3,29.91,SSE,154,3.1,8.3,82,0.00,,SCT,0.00,VWS V14.01,2013-02-07 14:00:00,
2013-02-07 06:05:00,30.9,26.4,29.91,SSW,203,4.0,8.1,83,0.00,,SCT,0.00,VWS V14.01,2013-02-07 14:05:00,
2013-02-07 06:10:00,30.7,26.5,29.91,SE,139,3.1,8.3,84,0.00,,SCT,0.00,VWS V14.01,2013-02-07 14:10:00,
2013-02-07 06:15:00,30.6,26.6,29.91,SE,128,0.0,8.3,85,0.00,,SCT,0.00,VWS V14.01,2013-02-07 14:15:00,
2013-02-07 06:20:00,30.4,26.4,29.91,SSE,164,6.3,7.6,85,0.00,,SCT,0.00,VWS V14.01,2013-02-07 14:20:00,
2013-02-07 06:25:00,30.2,26.5,29.91,SE,141,4.0,8.3,86,0.00,,SCT,0.00,VWS V14.01,2013-02-07 14:25:00,
2013-02-07 06:30:00,30.2,26.8,29.91,SW,224,0.0,0.0,87,0.00,,SCT,0.00,VWS V14.01,2013-02-07 14:30:00,
2013-02-07 06:35:00,30.0,26.6,29.91,SE,131,0.0,5.8,87,0.00,,SCT,0.00,VWS V14.01,2013-02-07 14:35:00,
2013-02-07 06:40:00,29.8,26.5,29.91,South,182,0.0,6.3,87,0.00,,SCT,0.00,VWS V14.01,2013-02-07 14:40:00,
2013-02-07 06:45:00,29.7,26.3,29.91,SSE,149,0.0,4.9,87,0.00,,SCT,0.00,VWS V14.01,2013-02-07 14:45:00,
2013-02-07 06:50:00,29.7,26.3,29.91,SE,142,0.0,6.3,87,0.00,,SCT,0.00,VWS V14.01,2013-02-07 14:50:00,
2013-02-07 06:55:00,29.5,26.4,29.91,East,96,2.2,6.3,88,0.00,,SCT,0.00,VWS V14.01,2013-02-07 14:55:00,
2013-02-07 07:00:00,29.5,26.4,29.91,South,183,3.6,7.6,88,0.00,,SCT,0.00,VWS V14.01,2013-02-07 15:00:00,
2013-02-07 07:05:00,29.5,26.4,29.91,SE,142,3.1,7.6,88,0.00,,SCT,0.00,VWS V14.01,2013-02-07 15:05:00,
2013-02-07 07:10:00,29.3,26.2,29.94,SSE,151,4.0,7.6,88,0.00,,SCT,0.00,VWS V14.01,2013-02-07 15:10:00,
2013-02-07 07:15:00,29.3,26.2,29.94,SSW,192,0.0,0.0,88,0.00,,SCT,0.00,VWS V14.01,2013-02-07 15:15:00,
2013-02-07 07:20:00,29.1,26.0,29.94,SSE,159,0.0,0.0,88,0.00,,SCT,0.00,VWS V14.01,2013-02-07 15:20:00,
2013-02-07 07:25:00,29.1,26.0,29.94,SSE,161,0.0,0.0,88,0.00,,SCT,0.00,VWS V14.01,2013-02-07 15:25:00,
2013-02-07 07:30:00,29.1,25.7,29.94,WSW,238,0.0,0.0,87,0.00,,SCT,0.00,VWS V14.01,2013-02-07 15:30:00,
2013-02-07 07:31:00,29.1,25.7,29.94,West,270,0.0,0.0,87,0.00,,SCT,0.00,VWS V14.01,2013-02-07 15:31:00,
2013-02-07 07:36:00,29.1,25.7,29.94,SE,144,0.0,0.0,87,0.00,,SCT,0.00,VWS V14.01,2013-02-07 15:36:00,
2013-02-07 07:41:00,29.1,25.7,29.94,SW,219,0.0,3.1,87,0.00,,SCT,0.00,VWS V14.01,2013-02-07 15:41:00,
2013-02-07 07:45:00,29.5,25.2,29.94,NW,314,0.0,0.0,84,0.00,,SCT,0.00,VWS V14.01,2013-02-07 15:45:00,
2013-02-07 07:46:00,29.1,25.5,29.94,SE,128,4.0,5.4,86,0.00,,SCT,0.00,VWS V14.01,2013-02-07 15:46:00,
2013-02-07 07:51:00,28.9,25.3,29.94,SSW,192,4.0,5.8,86,0.00,,SCT,0.00,VWS V14.01,2013-02-07 15:51:00,
2013-02-07 07:56:00,28.9,25.3,29.94,SSE,148,5.8,7.6,86,0.00,,SCT,0.00,VWS V14.01,2013-02-07 15:56:00,
2013-02-07 08:00:00,28.9,25.3,29.94,SSE,155,3.1,7.6,86,0.00,,SCT,0.00,VWS V14.01,2013-02-07 16:00:00,
2013-02-07 08:01:00,28.9,25.3,29.94,SSE,166,4.0,4.0,86,0.00,,SCT,0.00,VWS V14.01,2013-02-07 16:01:00,
2013-02-07 08:06:00,28.9,25.0,29.94,South,182,0.0,5.4,85,0.00,,SCT,0.00,VWS V14.01,2013-02-07 16:06:00,
2013-02-07 08:11:00,28.9,25.0,29.94,NW,315,0.0,5.4,85,0.00,,SCT,0.00,VWS V14.01,2013-02-07 16:11:00,
2013-02-07 08:15:00,28.9,25.0,29.94,North,353,0.0,5.4,85,0.00,,SCT,0.00,VWS V14.01,2013-02-07 16:15:00,
2013-02-07 08:16:00,28.9,25.0,29.94,NNW,327,0.0,0.0,85,0.00,,SCT,0.00,VWS V14.01,2013-02-07 16:16:00,
2013-02-07 08:21:00,28.9,25.0,29.94,NW,314,0.0,0.0,85,0.00,,SCT,0.00,VWS V14.01,2013-02-07 16:21:00,
2013-02-07 08:26:00,28.9,25.0,29.94,NW,314,0.0,0.0,85,0.00,,SCT,0.00,VWS V14.01,2013-02-07 16:26:00,
2013-02-07 08:30:00,31.1,26.5,29.97,NNE,28,0.0,0.0,83,0.00,,SCT,0.00,VWS V14.01,2013-02-07 16:30:00,
2013-02-07 08:32:00,29.1,25.2,29.94,NW,314,0.0,0.0,85,0.00,,SCT,0.00,VWS V14.01,2013-02-07 16:32:00,
2013-02-07 08:37:00,29.3,25.4,29.94,NW,314,0.0,0.0,85,0.00,,SCT,0.00,VWS V14.01,2013-02-07 16:37:00,
2013-02-07 08:42:00,29.3,25.4,29.94,NW,314,0.0,0.0,85,0.00,,SCT,0.00,VWS V14.01,2013-02-07 16:42:00,
2013-02-07 08:45:00,32.5,25.8,29.94,East,83,0.0,3.6,76,0.00,,SCT,0.00,VWS V14.01,2013-02-07 16:45:00,
2013-02-07 08:47:00,29.5,25.2,29.94,NW,314,0.0,0.0,84,0.00,,SCT,0.00,VWS V14.01,2013-02-07 16:47:00,
2013-02-07 08:52:00,29.7,25.4,29.94,NNE,28,0.0,0.0,84,0.00,,SCT,0.00,VWS V14.01,2013-02-07 16:52:00,
2013-02-07 08:57:00,29.8,25.6,29.94,NNE,28,0.0,0.0,84,0.00,,SCT,0.00,VWS V14.01,2013-02-07 16:57:00,
2013-02-07 09:00:00,29.8,25.6,29.94,NNE,28,0.0,0.0,84,0.00,,SCT,0.00,VWS V14.01,2013-02-07 17:00:00,
2013-02-07 09:02:00,29.8,25.3,29.94,NNE,28,0.0,0.0,83,0.00,,SCT,0.00,VWS V14.01,2013-02-07 17:02:00,
2013-02-07 09:07:00,30.0,25.5,29.94,NNE,28,0.0,0.0,83,0.00,,SCT,0.00,VWS V14.01,2013-02-07 17:07:00,
2013-02-07 09:12:00,30.2,25.7,29.97,NNE,28,0.0,0.0,83,0.00,,SCT,0.00,VWS V14.01,2013-02-07 17:12:00,
2013-02-07 09:15:00,32.5,23.5,29.97,East,94,0.0,3.6,69,0.00,,SCT,0.00,VWS V14.01,2013-02-07 17:15:00,
2013-02-07 09:17:00,30.4,25.9,29.97,NNE,28,0.0,0.0,83,0.00,,SCT,0.00,VWS V14.01,2013-02-07 17:17:00,
2013-02-07 09:22:00,30.6,25.7,29.97,NNE,28,0.0,0.0,82,0.00,,SCT,0.00,VWS V14.01,2013-02-07 17:22:00,
2013-02-07 09:27:00,30.7,25.9,29.97,NNE,28,0.0,0.0,82,0.00,,SCT,0.00,VWS V14.01,2013-02-07 17:27:00,
2013-02-07 09:30:00,31.1,26.5,29.97,NNE,28,0.0,0.0,83,0.00,,SCT,0.00,VWS V14.01,2013-02-07 17:30:00,
2013-02-07 09:32:00,31.3,26.4,29.97,NNE,28,0.0,0.0,82,0.00,,SCT,0.00,VWS V14.01,2013-02-07 17:32:00,
2013-02-07 09:38:00,32.0,26.2,29.97,East,94,0.0,0.0,79,0.00,,SCT,0.00,VWS V14.01,2013-02-07 17:38:00,
2013-02-07 09:43:00,32.5,26.1,29.94,ESE,119,0.0,3.6,77,0.00,,SCT,0.00,VWS V14.01,2013-02-07 17:43:00,
2013-02-07 09:45:00,34.5,22.9,29.97,SE,144,0.0,0.0,62,0.00,,SCT,0.00,VWS V14.01,2013-02-07 17:45:00,
2013-02-07 09:48:00,32.9,25.2,29.94,SE,135,0.0,0.0,73,0.00,,SCT,0.00,VWS V14.01,2013-02-07 17:48:00,
2013-02-07 09:53:00,32.9,24.9,29.94,SE,124,0.0,0.0,72,0.00,,SCT,0.00,VWS V14.01,2013-02-07 17:53:00,
2013-02-07 09:58:00,32.4,23.3,29.94,SE,137,0.0,0.0,69,0.00,,SCT,0.00,VWS V14.01,2013-02-07 17:58:00,
2013-02-07 10:00:00,35.6,19.7,29.97,SSW,194,0.0,4.9,52,0.00,,SCT,0.00,VWS V14.01,2013-02-07 18:00:00,
2013-02-07 10:03:00,32.2,23.5,29.94,ESE,115,0.0,0.0,70,0.00,,SCT,0.00,VWS V14.01,2013-02-07 18:03:00,
2013-02-07 10:08:00,32.4,23.7,29.94,ESE,121,0.0,0.0,70,0.00,,SCT,0.00,VWS V14.01,2013-02-07 18:08:00,
2013-02-07 10:13:00,32.5,23.5,29.97,ESE,122,0.0,3.6,69,0.00,,SCT,0.00,VWS V14.01,2013-02-07 18:13:00,
2013-02-07 10:15:00,37.6,20.2,29.97,South,178,0.0,5.4,49,0.00,,SCT,0.00,VWS V14.01,2013-02-07 18:15:00,
2013-02-07 10:18:00,32.7,23.7,29.97,East,94,0.0,0.0,69,0.00,,SCT,0.00,VWS V14.01,2013-02-07 18:18:00,
2013-02-07 10:23:00,32.9,22.8,29.97,SE,144,0.0,0.0,66,0.00,,SCT,0.00,VWS V14.01,2013-02-07 18:23:00,
2013-02-07 10:28:00,32.7,22.3,29.97,SE,144,0.0,0.0,65,0.00,,SCT,0.00,VWS V14.01,2013-02-07 18:28:00,
2013-02-07 10:30:00,32.7,21.9,29.97,SE,144,0.0,0.0,64,0.00,,SCT,0.00,VWS V14.01,2013-02-07 18:30:00,
2013-02-07 10:33:00,32.7,22.3,29.97,SE,144,0.0,0.0,65,0.00,,SCT,0.00,VWS V14.01,2013-02-07 18:33:00,
2013-02-07 10:38:00,33.4,23.0,29.97,SE,144,0.0,0.0,65,0.00,,SCT,0.00,VWS V14.01,2013-02-07 18:38:00,
2013-02-07 10:43:00,34.2,22.5,29.97,SE,144,0.0,0.0,62,0.00,,SCT,0.00,VWS V14.01,2013-02-07 18:43:00,
2013-02-07 10:45:00,34.5,22.9,29.97,SE,144,0.0,0.0,62,0.00,,SCT,0.00,VWS V14.01,2013-02-07 18:45:00,
2013-02-07 10:48:00,35.1,21.8,29.97,SSE,164,0.0,4.9,58,0.00,,SCT,0.00,VWS V14.01,2013-02-07 18:48:00,
2013-02-07 10:53:00,35.4,21.7,29.97,SSE,164,0.0,4.9,57,0.00,,SCT,0.00,VWS V14.01,2013-02-07 18:53:00,
2013-02-07 10:58:00,35.6,19.7,29.97,SSW,194,0.0,4.9,52,0.00,,SCT,0.00,VWS V14.01,2013-02-07 18:58:00,
2013-02-07 11:00:00,35.6,19.7,29.97,SSW,194,0.0,4.9,52,0.00,,SCT,0.00,VWS V14.01,2013-02-07 19:00:00,
2013-02-07 11:03:00,36.0,20.1,29.97,SSW,193,0.0,0.0,52,0.00,,SCT,0.00,VWS V14.01,2013-02-07 19:03:00,
2013-02-07 11:08:00,36.9,20.4,29.97,SE,125,0.0,0.0,51,0.00,,SCT,0.00,VWS V14.01,2013-02-07 19:08:00,
2013-02-07 11:13:00,37.4,20.5,29.97,ESE,121,0.0,4.0,50,0.00,,SCT,0.00,VWS V14.01,2013-02-07 19:13:00,
2013-02-07 11:18:00,38.3,20.4,29.97,ESE,123,0.0,4.0,48,0.00,,SCT,0.00,VWS V14.01,2013-02-07 19:18:00,
2013-02-07 11:23:00,39.2,20.2,29.97,South,191,0.0,4.0,46,0.00,,SCT,0.00,VWS V14.01,2013-02-07 19:23:00,
2013-02-07 11:28:00,39.2,18.0,29.94,SE,143,3.6,6.3,42,0.00,,SCT,0.00,VWS V14.01,2013-02-07 19:28:00,
2013-02-07 11:30:00,38.8,17.7,29.94,WSW,240,2.7,6.7,42,0.00,,SCT,0.00,VWS V14.01,2013-02-07 19:30:00,
2013-02-07 11:33:00,39.0,17.9,29.94,WNW,294,0.0,2.7,42,0.00,,SCT,0.00,VWS V14.01,2013-02-07 19:33:00,
2013-02-07 11:38:00,40.3,19.0,29.94,WSW,240,0.0,2.7,42,0.00,,SCT,0.00,VWS V14.01,2013-02-07 19:38:00,
2013-02-07 11:43:00,40.5,18.1,29.94,West,271,0.0,2.7,40,0.00,,SCT,0.00,VWS V14.01,2013-02-07 19:43:00,
2013-02-07 11:45:00,40.3,17.9,29.94,WSW,240,0.0,2.7,40,0.00,,SCT,0.00,VWS V14.01,2013-02-07 19:45:00,
2013-02-07 11:49:00,39.4,17.1,29.94,SW,229,0.0,0.0,40,0.00,,SCT,0.00,VWS V14.01,2013-02-07 19:49:00,
2013-02-07 11:54:00,39.2,16.9,29.94,SW,229,0.0,0.0,40,0.00,,SCT,0.00,VWS V14.01,2013-02-07 19:54:00,
2013-02-07 11:59:00,39.0,17.3,29.94,SSE,164,0.0,0.0,41,0.00,,SCT,0.00,VWS V14.01,2013-02-07 19:59:00,
2013-02-07 12:00:00,41.0,19.1,29.94,SSE,163,0.0,5.4,41,0.00,,SCT,0.00,VWS V14.01,2013-02-07 20:00:00,
2013-02-07 12:04:00,39.2,16.9,29.94,SE,141,0.0,0.0,40,0.00,,SCT,0.00,VWS V14.01,2013-02-07 20:04:00,
2013-02-07 12:09:00,38.8,17.2,29.94,South,184,0.0,0.0,41,0.00,,SCT,0.00,VWS V14.01,2013-02-07 20:09:00,
2013-02-07 12:14:00,38.1,15.9,29.94,SE,124,0.0,4.9,40,0.00,,SCT,0.00,VWS V14.01,2013-02-07 20:14:00,
2013-02-07 12:19:00,38.3,16.7,29.94,East,92,0.0,4.9,41,0.00,,SCT,0.00,VWS V14.01,2013-02-07 20:19:00,
2013-02-07 12:24:00,39.2,16.9,29.94,ESE,113,0.0,4.9,40,0.00,,SCT,0.00,VWS V14.01,2013-02-07 20:24:00,
2013-02-07 12:29:00,39.2,16.9,29.94,SE,124,0.0,4.9,40,0.00,,SCT,0.00,VWS V14.01,2013-02-07 20:29:00,
2013-02-07 12:30:00,39.2,16.9,29.94,ESE,108,0.0,4.9,40,0.00,,SCT,0.00,VWS V14.01,2013-02-07 20:30:00,
2013-02-07 12:34:00,39.9,17.6,29.94,SSE,166,0.0,5.4,40,0.00,,SCT,0.00,VWS V14.01,2013-02-07 20:34:00,
2013-02-07 12:39:00,40.3,17.9,29.94,South,173,0.0,5.4,40,0.00,,SCT,0.00,VWS V14.01,2013-02-07 20:39:00,
2013-02-07 12:44:00,40.5,18.6,29.94,SE,146,3.6,6.3,41,0.00,,SCT,0.00,VWS V14.01,2013-02-07 20:44:00,
2013-02-07 12:45:00,40.5,18.6,29.94,SE,146,3.6,6.3,41,0.00,,SCT,0.00,VWS V14.01,2013-02-07 20:45:00,
2013-02-07 12:49:00,41.5,19.0,29.94,SSE,155,5.4,5.4,40,0.00,,SCT,0.00,VWS V14.01,2013-02-07 20:49:00,
2013-02-07 12:55:00,40.8,19.0,29.94,ESE,117,0.0,5.4,41,0.00,,SCT,0.00,VWS V14.01,2013-02-07 20:55:00,
2013-02-07 13:00:00,41.0,19.1,29.94,SSE,163,0.0,5.4,41,0.00,,SCT,0.00,VWS V14.01,2013-02-07 21:00:00,
2013-02-07 13:05:00,41.2,19.3,29.94,North,353,0.0,0.0,41,0.00,,SCT,0.00,VWS V14.01,2013-02-07 21:05:00,
2013-02-07 13:10:00,41.2,19.3,29.94,WNW,296,0.0,0.0,41,0.00,,SCT,0.00,VWS V14.01,2013-02-07 21:10:00,
2013-02-07 13:15:00,40.8,21.1,29.94,WNW,284,0.0,5.4,45,0.00,,SCT,0.00,VWS V14.01,2013-02-07 21:15:00,
2013-02-07 13:19:00,41.5,19.6,29.94,NNW,327,0.0,0.0,41,0.00,,SCT,0.00,VWS V14.01,2013-02-07 21:19:00,
2013-02-07 13:24:00,41.2,18.7,29.94,NW,309,0.0,0.0,40,0.00,,SCT,0.00,VWS V14.01,2013-02-07 21:24:00,
2013-02-07 13:29:00,40.3,18.5,29.94,WNW,288,0.0,0.0,41,0.00,,SCT,0.00,VWS V14.01,2013-02-07 21:29:00,
2013-02-07 13:30:00,41.5,19.6,29.94,East,99,0.0,3.6,41,0.00,,SCT,0.00,VWS V14.01,2013-02-07 21:30:00,
2013-02-07 13:34:00,39.7,18.0,29.94,ENE,73,0.0,0.0,41,0.00,,SCT,0.00,VWS V14.01,2013-02-07 21:34:00,
2013-02-07 13:39:00,39.2,18.0,29.94,NNW,344,0.0,5.4,42,0.00,,SCT,0.00,VWS V14.01,2013-02-07 21:39:00,
2013-02-07 13:44:00,39.2,18.6,29.94,North,10,0.0,5.4,43,0.00,,SCT,0.00,VWS V14.01,2013-02-07 21:44:00,
2013-02-07 13:45:00,40.1,18.9,29.94,SSE,158,0.0,0.0,42,0.00,,SCT,0.00,VWS V14.01,2013-02-07 21:45:00,
2013-02-07 13:49:00,39.2,18.6,29.94,West,277,0.0,4.9,43,0.00,,SCT,0.00,VWS V14.01,2013-02-07 21:49:00,
2013-02-07 13:55:00,39.4,18.8,29.94,NNW,340,0.0,4.9,43,0.00,,SCT,0.00,VWS V14.01,2013-02-07 21:55:00,
2013-02-07 14:00:00,39.4,19.3,29.94,WNW,289,0.0,4.9,44,0.00,,SCT,0.00,VWS V14.01,2013-02-07 22:00:00,
2013-02-07 14:05:00,40.1,20.0,29.94,West,270,0.0,5.4,44,0.00,,SCT,0.00,VWS V14.01,2013-02-07 22:05:00,
2013-02-07 14:10:00,39.7,19.6,29.94,NW,318,0.0,5.4,44,0.00,,SCT,0.00,VWS V14.01,2013-02-07 22:10:00,
2013-02-07 14:15:00,40.8,21.1,29.94,WNW,284,0.0,5.4,45,0.00,,SCT,0.00,VWS V14.01,2013-02-07 22:15:00,
2013-02-07 14:20:00,42.3,20.8,29.94,West,279,0.0,3.6,42,0.00,,SCT,0.00,VWS V14.01,2013-02-07 22:20:00,
2013-02-07 14:25:00,42.1,20.1,29.94,SE,137,0.0,3.6,41,0.00,,SCT,0.00,VWS V14.01,2013-02-07 22:25:00,
2013-02-07 14:30:00,41.5,19.6,29.94,ESE,109,0.0,0.0,41,0.00,,SCT,0.00,VWS V14.01,2013-02-07 22:30:00,
2013-02-07 14:35:00,41.0,19.1,29.94,SSW,212,0.0,0.0,41,0.00,,SCT,0.00,VWS V14.01,2013-02-07 22:35:00,
2013-02-07 14:40:00,40.5,19.2,29.94,South,185,0.0,0.0,42,0.00,,SCT,0.00,VWS V14.01,2013-02-07 22:40:00,
2013-02-07 14:45:00,40.1,18.9,29.94,NNW,331,0.0,0.0,42,0.00,,SCT,0.00,VWS V14.01,2013-02-07 22:45:00,
2013-02-07 14:50:00,39.7,18.5,29.94,North,353,0.0,3.6,42,0.00,,SCT,0.00,VWS V14.01,2013-02-07 22:50:00,
2013-02-07 14:55:00,39.6,18.4,29.94,WNW,296,0.0,3.6,42,0.00,,SCT,0.00,VWS V14.01,2013-02-07 22:55:00,
2013-02-07 15:00:00,39.7,18.5,29.94,NNW,343,0.0,0.0,42,0.00,,SCT,0.00,VWS V14.01,2013-02-07 23:00:00,
2013-02-07 15:05:00,39.9,18.1,29.94,NW,312,0.0,0.0,41,0.00,,SCT,0.00,VWS V14.01,2013-02-07 23:05:00,
2013-02-07 15:10:00,39.4,17.7,29.94,SSE,148,0.0,0.0,41,0.00,,SCT,0.00,VWS V14.01,2013-02-07 23:10:00,
2013-02-07 15:15:00,39.2,16.9,29.94,East,93,0.0,0.0,40,0.00,,SCT,0.00,VWS V14.01,2013-02-07 23:15:00,
2013-02-07 15:16:00,39.7,18.0,29.94,WSW,250,0.0,0.0,41,0.00,,SCT,0.00,VWS V14.01,2013-02-07 23:16:00,
2013-02-07 15:21:00,40.5,18.6,29.94,NW,314,0.0,0.0,41,0.00,,SCT,0.00,VWS V14.01,2013-02-07 23:21:00,
2013-02-07 15:26:00,40.8,19.0,29.94,WNW,294,0.0,0.0,41,0.00,,SCT,0.00,VWS V14.01,2013-02-07 23:26:00,
2013-02-07 15:30:00,38.3,16.7,29.94,East,88,0.0,0.0,41,0.00,,SCT,0.00,VWS V14.01,2013-02-07 23:30:00,
2013-02-07 15:31:00,41.4,18.9,29.94,NNW,327,0.0,0.0,40,0.00,,SCT,0.00,VWS V14.01,2013-02-07 23:31:00,
2013-02-07 15:36:00,41.7,19.2,29.94,NW,311,0.0,4.9,40,0.00,,SCT,0.00,VWS V14.01,2013-02-07 23:36:00,
2013-02-07 15:41:00,41.2,18.1,29.94,NW,319,0.0,4.9,39,0.00,,SCT,0.00,VWS V14.01,2013-02-07 23:41:00,
2013-02-07 15:45:00,39.2,16.9,29.94,East,90,0.0,0.0,40,0.00,,SCT,0.00,VWS V14.01,2013-02-07 23:45:00,
2013-02-07 15:46:00,40.5,17.5,29.94,NW,324,0.0,0.0,39,0.00,,SCT,0.00,VWS V14.01,2013-02-07 23:46:00,
2013-02-07 15:51:00,40.3,17.3,29.94,NNW,335,0.0,0.0,39,0.00,,SCT,0.00,VWS V14.01,2013-02-07 23:51:00,
2013-02-07 15:56:00,39.7,17.4,29.94,East,92,0.0,0.0,40,0.00,,SCT,0.00,VWS V14.01,2013-02-07 23:56:00,
2013-02-07 16:00:00,39.7,17.4,29.94,ESE,119,0.0,0.0,40,0.00,,SCT,0.00,VWS V14.01,2013-02-08 00:00:00,
2013-02-07 16:01:00,39.7,17.4,29.94,NW,326,0.0,0.0,40,0.00,,SCT,0.00,VWS V14.01,2013-02-08 00:01:00,
2013-02-07 16:06:00,39.7,16.8,29.94,ENE,64,0.0,0.0,39,0.00,,SCT,0.00,VWS V14.01,2013-02-08 00:06:00,
2013-02-07 16:11:00,39.4,17.1,29.94,East,93,0.0,0.0,40,0.00,,SCT,0.00,VWS V14.01,2013-02-08 00:11:00,
2013-02-07 16:15:00,37.8,15.6,29.97,East,80,0.0,0.0,40,0.00,,SCT,0.00,VWS V14.01,2013-02-08 00:15:00,
2013-02-07 16:16:00,39.2,16.9,29.94,NNE,33,0.0,0.0,40,0.00,,SCT,0.00,VWS V14.01,2013-02-08 00:16:00,
2013-02-07 16:21:00,38.8,16.6,29.94,NE,55,0.0,0.0,40,0.00,,SCT,0.00,VWS V14.01,2013-02-08 00:21:00,
2013-02-07 16:27:00,38.5,16.3,29.94,East,89,0.0,0.0,40,0.00,,SCT,0.00,VWS V14.01,2013-02-08 00:27:00,
2013-02-07 16:30:00,36.9,15.4,29.97,NE,41,0.0,0.0,41,0.00,,SCT,0.00,VWS V14.01,2013-02-08 00:30:00,
2013-02-07 16:32:00,38.1,16.5,29.94,East,86,0.0,0.0,41,0.00,,SCT,0.00,VWS V14.01,2013-02-08 00:32:00,
2013-02-07 16:37:00,38.1,16.5,29.94,East,86,0.0,0.0,41,0.00,,SCT,0.00,VWS V14.01,2013-02-08 00:37:00,
2013-02-07 16:42:00,38.8,17.2,29.94,East,90,0.0,0.0,41,0.00,,SCT,0.00,VWS V14.01,2013-02-08 00:42:00,
2013-02-07 16:45:00,36.3,15.4,29.97,NNE,33,0.0,0.0,42,0.00,,SCT,0.00,VWS V14.01,2013-02-08 00:45:00,
2013-02-07 16:47:00,39.2,16.9,29.94,ESE,119,0.0,0.0,40,0.00,,SCT,0.00,VWS V14.01,2013-02-08 00:47:00,
2013-02-07 16:52:00,39.4,17.1,29.94,ESE,119,0.0,0.0,40,0.00,,SCT,0.00,VWS V14.01,2013-02-08 00:52:00,
2013-02-07 16:57:00,39.7,17.4,29.94,ESE,119,0.0,0.0,40,0.00,,SCT,0.00,VWS V14.01,2013-02-08 00:57:00,
2013-02-07 17:00:00,35.6,14.8,29.97,NE,37,0.0,0.0,42,0.00,,SCT,0.00,VWS V14.01,2013-02-08 01:00:00,
2013-02-07 17:02:00,39.4,17.1,29.94,ESE,119,0.0,0.0,40,0.00,,SCT,0.00,VWS V14.01,2013-02-08 01:02:00,
2013-02-07 17:07:00,38.7,16.4,29.94,ESE,119,0.0,0.0,40,0.00,,SCT,0.00,VWS V14.01,2013-02-08 01:07:00,
2013-02-07 17:12:00,38.1,15.9,29.97,East,80,0.0,0.0,40,0.00,,SCT,0.00,VWS V14.01,2013-02-08 01:12:00,
2013-02-07 17:15:00,35.1,15.4,29.97,NE,37,0.0,0.0,44,0.00,,SCT,0.00,VWS V14.01,2013-02-08 01:15:00,
2013-02-07 17:17:00,37.6,15.5,29.97,NNE,17,0.0,0.0,40,0.00,,SCT,0.00,VWS V14.01,2013-02-08 01:17:00,
2013-02-07 17:22:00,37.2,15.7,29.97,NNE,17,0.0,0.0,41,0.00,,SCT,0.00,VWS V14.01,2013-02-08 01:22:00,
2013-02-07 17:27:00,37.0,15.5,29.97,NE,38,0.0,0.0,41,0.00,,SCT,0.00,VWS V14.01,2013-02-08 01:27:00,
2013-02-07 17:30:00,34.5,15.4,29.97,North,357,0.0,0.0,45,0.00,,SCT,0.00,VWS V14.01,2013-02-08 01:30:00,
2013-02-07 17:33:00,36.7,15.2,29.97,NE,41,0.0,0.0,41,0.00,,SCT,0.00,VWS V14.01,2013-02-08 01:33:00,
2013-02-07 17:38:00,36.7,15.8,29.97,NE,36,0.0,0.0,42,0.00,,SCT,0.00,VWS V14.01,2013-02-08 01:38:00,
2013-02-07 17:43:00,36.5,15.6,29.97,NNE,33,0.0,0.0,42,0.00,,SCT,0.00,VWS V14.01,2013-02-08 01:43:00,
2013-02-07 17:45:00,34.2,15.6,29.97,North,0,0.0,0.0,46,0.00,,SCT,0.00,VWS V14.01,2013-02-08 01:45:00,
2013-02-07 17:48:00,36.1,15.3,29.97,NNE,33,0.0,0.0,42,0.00,,SCT,0.00,VWS V14.01,2013-02-08 01:48:00,
2013-02-07 17:53:00,35.8,14.9,29.97,NE,36,0.0,0.0,42,0.00,,SCT,0.00,VWS V14.01,2013-02-08 01:53:00,
2013-02-07 17:58:00,35.6,14.8,29.97,NE,37,0.0,0.0,42,0.00,,SCT,0.00,VWS V14.01,2013-02-08 01:58:00,
2013-02-07 18:00:00,33.3,15.7,29.97,North,353,0.0,0.0,48,0.00,,SCT,0.00,VWS V14.01,2013-02-08 02:00:00,
2013-02-07 18:03:00,35.4,15.2,29.97,NE,37,0.0,0.0,43,0.00,,SCT,0.00,VWS V14.01,2013-02-08 02:03:00,
2013-02-07 18:08:00,35.2,15.0,29.97,NE,37,0.0,0.0,43,0.00,,SCT,0.00,VWS V14.01,2013-02-08 02:08:00,
2013-02-07 18:13:00,35.1,15.4,29.97,NE,37,0.0,0.0,44,0.00,,SCT,0.00,VWS V14.01,2013-02-08 02:13:00,
2013-02-07 18:15:00,32.4,15.8,29.97,NNW,341,0.0,0.0,50,0.00,,SCT,0.00,VWS V14.01,2013-02-08 02:15:00,
2013-02-07 18:18:00,35.1,15.4,29.97,NE,37,0.0,0.0,44,0.00,,SCT,0.00,VWS V14.01,2013-02-08 02:18:00,
2013-02-07 18:24:00,34.9,15.2,29.97,NE,36,0.0,0.0,44,0.00,,SCT,0.00,VWS V14.01,2013-02-08 02:24:00,
2013-02-07 18:29:00,34.5,15.4,29.97,North,357,0.0,0.0,45,0.00,,SCT,0.00,VWS V14.01,2013-02-08 02:29:00,
2013-02-07 18:30:00,31.8,16.2,29.97,NW,325,0.0,0.0,52,0.00,,SCT,0.00,VWS V14.01,2013-02-08 02:30:00,
2013-02-07 18:34:00,34.3,15.2,29.97,North,357,0.0,0.0,45,0.00,,SCT,0.00,VWS V14.01,2013-02-08 02:34:00,
2013-02-07 18:39:00,34.3,15.7,29.97,North,357,0.0,0.0,46,0.00,,SCT,0.00,VWS V14.01,2013-02-08 02:39:00,
2013-02-07 18:44:00,34.2,15.6,29.97,North,0,0.0,0.0,46,0.00,,SCT,0.00,VWS V14.01,2013-02-08 02:44:00,
2013-02-07 18:45:00,31.1,16.0,29.97,NNW,332,0.0,0.0,53,0.00,,SCT,0.00,VWS V14.01,2013-02-08 02:45:00,
2013-02-07 18:49:00,33.8,15.7,29.97,North,349,0.0,0.0,47,0.00,,SCT,0.00,VWS V14.01,2013-02-08 02:49:00,
2013-02-07 18:54:00,33.4,15.4,29.97,NNW,348,0.0,0.0,47,0.00,,SCT,0.00,VWS V14.01,2013-02-08 02:54:00,
2013-02-07 18:59:00,33.3,15.7,29.97,North,353,0.0,0.0,48,0.00,,SCT,0.00,VWS V14.01,2013-02-08 02:59:00,
2013-02-07 19:00:00,30.9,15.8,29.97,NNW,335,0.0,0.0,53,0.00,,SCT,0.00,VWS V14.01,2013-02-08 03:00:00,
2013-02-07 19:04:00,32.9,15.9,29.97,NNW,341,0.0,0.0,49,0.00,,SCT,0.00,VWS V14.01,2013-02-08 03:04:00,
2013-02-07 19:09:00,32.5,16.0,29.97,NNW,341,0.0,0.0,50,0.00,,SCT,0.00,VWS V14.01,2013-02-08 03:09:00,
2013-02-07 19:14:00,32.5,16.0,29.97,NNW,341,0.0,0.0,50,0.00,,SCT,0.00,VWS V14.01,2013-02-08 03:14:00,
2013-02-07 19:15:00,30.4,16.2,30.00,NNW,331,0.0,0.0,55,0.00,,SCT,0.00,VWS V14.01,2013-02-08 03:15:00,
2013-02-07 19:19:00,32.2,16.1,29.97,NNW,341,0.0,0.0,51,0.00,,SCT,0.00,VWS V14.01,2013-02-08 03:19:00,
2013-02-07 19:25:00,32.0,15.9,29.97,NW,320,0.0,0.0,51,0.00,,SCT,0.00,VWS V14.01,2013-02-08 03:25:00,
2013-02-07 19:30:00,31.8,16.2,29.97,NW,325,0.0,0.0,52,0.00,,SCT,0.00,VWS V14.01,2013-02-08 03:30:00,
2013-02-07 19:35:00,31.6,16.0,29.97,NNW,330,0.0,0.0,52,0.00,,SCT,0.00,VWS V14.01,2013-02-08 03:35:00,
2013-02-07 19:40:00,31.3,15.7,29.97,NNW,336,0.0,0.0,52,0.00,,SCT,0.00,VWS V14.01,2013-02-08 03:40:00,
2013-02-07 19:45:00,31.1,16.0,29.97,NNW,331,0.0,0.0,53,0.00,,SCT,0.00,VWS V14.01,2013-02-08 03:45:00,
2013-02-07 19:50:00,30.9,15.8,29.97,NNW,328,0.0,0.0,53,0.00,,SCT,0.00,VWS V14.01,2013-02-08 03:50:00,
2013-02-07 19:55:00,30.9,15.8,29.97,NNW,328,0.0,0.0,53,0.00,,SCT,0.00,VWS V14.01,2013-02-08 03:55:00,
2013-02-07 20:00:00,30.9,15.8,29.97,NNW,335,0.0,0.0,53,0.00,,SCT,0.00,VWS V14.01,2013-02-08 04:00:00,
2013-02-07 20:05:00,30.6,15.9,29.97,NNW,334,0.0,0.0,54,0.00,,SCT,0.00,VWS V14.01,2013-02-08 04:05:00,
2013-02-07 20:10:00,30.6,15.9,30.00,NNW,331,0.0,0.0,54,0.00,,SCT,0.00,VWS V14.01,2013-02-08 04:10:00,
2013-02-07 20:15:00,30.4,16.2,30.00,NNW,329,0.0,0.0,55,0.00,,SCT,0.00,VWS V14.01,2013-02-08 04:15:00,
2013-02-07 20:20:00,30.2,16.4,30.00,NW,322,0.0,0.0,56,0.00,,SCT,0.00,VWS V14.01,2013-02-08 04:20:00,
2013-02-07 20:25:00,30.0,16.2,30.00,NW,306,0.0,0.0,56,0.00,,SCT,0.00,VWS V14.01,2013-02-08 04:25:00,
2013-02-07 20:30:00,28.6,17.6,30.00,NNW,335,0.0,6.3,63,0.00,,SCT,0.00,VWS V14.01,2013-02-08 04:30:00,
2013-02-07 20:31:00,29.8,16.5,30.00,NW,320,0.0,0.0,57,0.00,,SCT,0.00,VWS V14.01,2013-02-08 04:31:00,
2013-02-07 20:36:00,29.8,16.5,30.00,NNW,335,0.0,0.0,57,0.00,,SCT,0.00,VWS V14.01,2013-02-08 04:36:00,
2013-02-07 20:41:00,29.8,16.5,30.00,NW,322,0.0,0.0,57,0.00,,SCT,0.00,VWS V14.01,2013-02-08 04:41:00,
2013-02-07 20:45:00,28.2,18.3,30.00,NNW,335,0.0,4.0,66,0.00,,SCT,0.00,VWS V14.01,2013-02-08 04:45:00,
2013-02-07 20:46:00,29.7,16.7,30.00,NNW,330,0.0,0.0,58,0.00,,SCT,0.00,VWS V14.01,2013-02-08 04:46:00,
2013-02-07 20:51:00,29.7,16.7,30.00,NNW,329,0.0,3.1,58,0.00,,SCT,0.00,VWS V14.01,2013-02-08 04:51:00,
2013-02-07 20:56:00,29.5,16.9,30.00,NW,325,0.0,3.1,59,0.00,,SCT,0.00,VWS V14.01,2013-02-08 04:56:00,
2013-02-07 21:00:00,29.3,16.8,30.00,North,353,0.0,3.1,59,0.00,,SCT,0.00,VWS V14.01,2013-02-08 05:00:00,
2013-02-07 21:02:00,29.3,17.1,30.00,NW,324,0.0,0.0,60,0.00,,SCT,0.00,VWS V14.01,2013-02-08 05:02:00,
2013-02-07 21:07:00,29.1,17.0,30.00,NNW,327,0.0,0.0,60,0.00,,SCT,0.00,VWS V14.01,2013-02-08 05:07:00,
2013-02-07 21:12:00,28.9,17.2,30.00,NW,314,0.0,4.9,61,0.00,,SCT,0.00,VWS V14.01,2013-02-08 05:12:00,
2013-02-07 21:15:00,27.9,19.4,30.00,NNW,346,0.0,5.4,70,0.00,,SCT,0.00,VWS V14.01,2013-02-08 05:15:00,
2013-02-07 21:17:00,28.9,17.2,30.00,NNW,339,0.0,0.0,61,0.00,,SCT,0.00,VWS V14.01,2013-02-08 05:17:00,
2013-02-07 21:22:00,28.8,17.4,30.00,NW,311,0.0,6.3,62,0.00,,SCT,0.00,VWS V14.01,2013-02-08 05:22:00,
2013-02-07 21:27:00,28.6,17.2,30.00,NNW,340,0.0,6.3,62,0.00,,SCT,0.00,VWS V14.01,2013-02-08 05:27:00,
2013-02-07 21:30:00,28.2,20.4,30.03,NNW,343,0.0,5.4,72,0.00,,SCT,0.00,VWS V14.01,2013-02-08 05:30:00,
2013-02-07 21:32:00,28.6,17.6,30.00,NNW,329,0.0,0.0,63,0.00,,SCT,0.00,VWS V14.01,2013-02-08 05:32:00,
2013-02-07 21:37:00,28.4,17.8,30.00,NNW,341,0.0,0.0,64,0.00,,SCT,0.00,VWS V14.01,2013-02-08 05:37:00,
2013-02-07 21:42:00,28.2,18.0,30.00,NNW,343,0.0,4.0,65,0.00,,SCT,0.00,VWS V14.01,2013-02-08 05:42:00,
2013-02-07 21:45:00,28.0,20.5,30.03,NNW,327,0.0,5.4,73,0.00,,SCT,0.00,VWS V14.01,2013-02-08 05:45:00,
2013-02-07 21:47:00,28.0,18.2,30.00,NNW,336,4.9,5.4,66,0.00,,SCT,0.00,VWS V14.01,2013-02-08 05:47:00,
2013-02-07 21:52:00,28.0,18.5,30.00,NW,314,0.0,5.4,67,0.00,,SCT,0.00,VWS V14.01,2013-02-08 05:52:00,
2013-02-07 21:58:00,27.9,18.7,30.00,NW,324,0.0,5.4,68,0.00,,SCT,0.00,VWS V14.01,2013-02-08 05:58:00,
2013-02-07 22:00:00,28.2,21.3,30.03,NNW,332,0.0,3.6,75,0.00,,SCT,0.00,VWS V14.01,2013-02-08 06:00:00,
2013-02-07 22:03:00,27.9,18.7,30.00,NNW,328,0.0,0.0,68,0.00,,SCT,0.00,VWS V14.01,2013-02-08 06:03:00,
2013-02-07 22:08:00,27.9,19.0,30.00,NNW,339,0.0,5.4,69,0.00,,SCT,0.00,VWS V14.01,2013-02-08 06:08:00,
2013-02-07 22:13:00,27.9,19.4,30.00,NNW,335,0.0,5.4,70,0.00,,SCT,0.00,VWS V14.01,2013-02-08 06:13:00,
2013-02-07 22:15:00,28.2,22.0,30.03,NNW,340,0.0,4.0,77,0.00,,SCT,0.00,VWS V14.01,2013-02-08 06:15:00,
2013-02-07 22:18:00,27.9,19.7,30.00,NNW,335,0.0,3.6,71,0.00,,SCT,0.00,VWS V14.01,2013-02-08 06:18:00,
2013-02-07 22:23:00,28.2,20.7,30.00,NNW,345,0.0,5.4,73,0.00,,SCT,0.00,VWS V14.01,2013-02-08 06:23:00,
2013-02-07 22:28:00,28.2,20.4,30.03,NNW,335,0.0,5.4,72,0.00,,SCT,0.00,VWS V14.01,2013-02-08 06:28:00,
2013-02-07 22:30:00,28.2,22.2,30.03,NW,326,0.0,5.8,78,0.00,,SCT,0.00,VWS V14.01,2013-02-08 06:30:00,
2013-02-07 22:33:00,28.2,20.4,30.03,NNW,334,0.0,5.4,72,0.00,,SCT,0.00,VWS V14.01,2013-02-08 06:33:00,
2013-02-07 22:38:00,28.0,20.2,30.03,NNW,333,0.0,5.4,72,0.00,,SCT,0.00,VWS V14.01,2013-02-08 06:38:00,
2013-02-07 22:43:00,28.0,20.5,30.03,NNW,339,0.0,5.4,73,0.00,,SCT,0.00,VWS V14.01,2013-02-08 06:43:00,
2013-02-07 22:45:00,28.2,22.6,30.03,NNW,332,0.0,6.7,79,0.00,,SCT,0.00,VWS V14.01,2013-02-08 06:45:00,
2013-02-07 22:49:00,28.0,20.8,30.03,NNW,340,0.0,0.0,74,0.00,,SCT,0.00,VWS V14.01,2013-02-08 06:49:00,
2013-02-07 22:54:00,28.2,21.0,30.03,NNW,331,0.0,3.6,74,0.00,,SCT,0.00,VWS V14.01,2013-02-08 06:54:00,
2013-02-07 22:59:00,28.2,21.3,30.03,NNW,332,0.0,3.6,75,0.00,,SCT,0.00,VWS V14.01,2013-02-08 06:59:00,
2013-02-07 23:00:00,28.4,23.0,30.03,North,349,0.0,0.0,80,0.00,,SCT,0.00,VWS V14.01,2013-02-08 07:00:00,
2013-02-07 23:04:00,28.2,21.3,30.03,NNW,348,0.0,0.0,75,0.00,,SCT,0.00,VWS V14.01,2013-02-08 07:04:00,
2013-02-07 23:09:00,28.4,21.8,30.03,WNW,300,0.0,0.0,76,0.00,,SCT,0.00,VWS V14.01,2013-02-08 07:09:00,
2013-02-07 23:14:00,28.2,22.0,30.03,NNW,340,0.0,4.0,77,0.00,,SCT,0.00,VWS V14.01,2013-02-08 07:14:00,
2013-02-07 23:15:00,28.4,23.3,30.03,NNW,337,0.0,0.0,81,0.00,,SCT,0.00,VWS V14.01,2013-02-08 07:15:00,
2013-02-07 23:19:00,28.2,22.0,30.03,NNW,334,0.0,0.0,77,0.00,,SCT,0.00,VWS V14.01,2013-02-08 07:19:00,
2013-02-07 23:24:00,28.2,22.0,30.03,NW,322,0.0,5.8,77,0.00,,SCT,0.00,VWS V14.01,2013-02-08 07:24:00,
2013-02-07 23:29:00,28.2,22.2,30.03,NW,326,0.0,5.8,78,0.00,,SCT,0.00,VWS V14.01,2013-02-08 07:29:00,
2013-02-07 23:30:00,28.4,23.3,30.03,NW,325,0.0,5.4,81,0.00,,SCT,0.00,VWS V14.01,2013-02-08 07:30:00,
2013-02-07 23:34:00,28.2,22.2,30.03,NNW,341,6.7,6.7,78,0.00,,SCT,0.00,VWS V14.01,2013-02-08 07:34:00,
2013-02-07 23:39:00,28.2,22.6,30.03,NNW,333,0.0,6.7,79,0.00,,SCT,0.00,VWS V14.01,2013-02-08 07:39:00,
2013-02-07 23:44:00,28.2,22.6,30.03,NNW,334,0.0,6.7,79,0.00,,SCT,0.00,VWS V14.01,2013-02-08 07:44:00,
2013-02-07 23:45:00,28.6,23.5,30.03,NNW,341,0.0,5.8,81,0.00,,SCT,0.00,VWS V14.01,2013-02-08 07:45:00,
2013-02-07 23:49:00,28.2,22.9,30.03,NNW,333,0.0,0.0,80,0.00,,SCT,0.00,VWS V14.01,2013-02-08 07:49:00,
2013-02-07 23:55:00,28.4,23.0,30.03,North,353,0.0,0.0,80,0.00,,SCT,0.00,VWS V14.01,2013-02-08 07:55:00,